Latest Coastal Weather Observations for Adelaide Airport

IDS60701

Issued at 11:41 am CDT Wednesday 25 January 2017 (issued every 10 minutes, with the page automatically refreshed every 10 minutes)

About coastal observations | Map of coastal stations | Coastal observations for SA | Marine services | Other Formats
Station Details ID: 023034 Name: ADELAIDE AIRPORT Lat: -34.95 Lon: 138.52 Height: 2.0 m
Data from the previous 72 hours. | See also: Recent months at Adelaide Airport
Date/Time
CDT
Temp
°C
Wind Pressure Rain since
9am
mm
Weather Cloud Vis
km
Sea
Height
m
Swell
Dir  Spd
kts
Gust
kts
hPa Trend Height
m
Period
s
Dir
25/11:30am 20.6 W 9 10 1020.9 - 0.0 - - 10 - - - -
25/11:00am 20.1 W 8 10 1021.1 - 0.0 - - 10 - - - -
25/10:30am 20.0 W 8 10 1021.2 - 0.0 - - 10 - - - -
25/10:00am 19.5 W 7 9 1021.2 - 0.0 - - 10 - - - -
25/09:30am 19.5 NW 5 7 1021.1 - 0.0 - - 10 - - - -
25/09:00am 18.9 E 4 6 1021.1 F 0.0 Haze Mostly clear 25 - - - -
25/08:30am 18.5 ESE 3 5 1020.8 - 0.0 - - 10 - - - -
25/08:00am 17.1 ESE 3 4 1020.8 - 0.0 - - 10 - - - -
25/07:30am 16.2 E 3 4 1020.7 - 0.0 - - 10 - - - -
25/07:00am 14.5 ESE 6 7 1020.5 - 0.0 - - 10 - - - -
25/06:30am 14.2 SE 8 9 1020.3 - 0.0 - - 10 - - - -
25/06:00am 12.9 SSE 4 5 1020.1 F 0.0 Fine Mostly clear 30 - - - -
25/05:30am 14.1 E 4 4 1020.0 - 0.0 - Mostly clear 10 - - - -
25/05:00am 14.1 E 4 5 1019.8 - 0.0 - - 10 - - - -
25/04:30am 14.5 ESE 6 7 1019.7 - 0.0 - - 10 - - - -
25/04:00am 14.6 SE 8 11 1019.7 - 0.0 - - 10 - - - -
25/03:30am 14.6 SE 8 10 1019.5 - 0.0 - - 10 - - - -
25/03:00am 14.3 SSE 7 9 1019.8 S 0.0 Fine Clear 30 - - - -
25/02:30am 14.4 SE 7 9 1019.8 - 0.0 - - 10 - - - -
25/02:00am 14.7 SE 6 8 1020.0 - 0.0 - - 10 - - - -
25/01:30am 15.1 SE 7 8 1020.3 - 0.0 - - 10 - - - -
25/01:00am 15.3 SSE 8 13 1020.4 - 0.0 - - 10 - - - -
25/12:30am 15.7 SSE 9 12 1020.6 - 0.0 - - 10 - - - -
25/12:00am 15.6 SE 10 16 1020.8 F 0.0 Fine Clear 30 - - - -
 
Date/Time
CDT
Temp
°C
Wind Pressure Rain since
9am
mm
Weather Cloud Vis
km
Sea
Height
m
Swell
Dir  Spd
kts
Gust
kts
hPa Trend Height
m
Period
s
Dir
24/11:30pm 15.8 SE 10 15 1020.9 - 0.0 - - 10 - - - -
24/11:00pm 16.1 SSE 11 16 1020.9 - 0.0 - - 10 - - - -
24/10:30pm 16.2 SSE 10 15 1021.1 - 0.0 - - 10 - - - -
24/10:00pm 16.5 SSE 8 13 1021.2 - 0.0 - - 10 - - - -
24/09:30pm 16.8 SSE 10 16 1021.0 - 0.0 - - 10 - - - -
24/09:00pm 17.3 SSE 13 19 1020.6 R 0.0 Fine Mostly clear 30 - - - -
24/08:30pm 17.8 SSE 14 19 1020.4 - 0.0 - - 10 - - - -
24/08:00pm 18.9 SSE 13 17 1019.9 - 0.0 - Mostly clear 10 - - - -
24/07:30pm 19.8 SE 13 16 1019.4 - 0.0 - Mostly clear 10 - - - -
24/07:00pm 20.6 SSE 12 17 1019.0 - 0.0 - Mostly clear 10 - - - -
24/06:30pm 21.3 SSE 14 18 1018.5 - 0.0 - Mostly clear 10 - - - -
24/06:00pm 22.0 SSE 12 17 1018.2 R 0.0 Haze Mostly clear 25 - - - -
24/05:30pm 22.6 SSE 11 17 1018.2 - 0.0 - Mostly clear 10 - - - -
24/05:00pm 22.8 SSE 11 16 1017.9 - 0.0 - Mostly clear 10 - - - -
24/04:30pm 23.5 S 15 21 1017.8 - 0.0 - Mostly clear 10 - - - -
24/04:00pm 23.5 S 14 19 1017.7 - 0.0 - Mostly clear 10 - - - -
24/03:30pm 23.3 S 11 17 1017.7 - 0.0 - Mostly clear 10 - - - -
24/03:05pm 23.0 SSW 15 28 1017.7 - 0.0 - Mostly clear 10 - - - -
24/03:00pm 23.2 SSW 15 23 1017.8 R 0.0 Haze Partly cloudy 25 - - - -
24/02:49pm 22.8 SW 17 27 1017.8 - 0.0 - Mostly clear 10 - - - -
24/02:30pm 22.4 SW 16 24 1017.7 - 0.0 - Mostly clear 10 - - - -
24/02:00pm 22.6 SW 17 21 1017.8 - 0.0 - Mostly clear 10 - - - -
24/01:30pm 21.6 SW 17 21 1017.8 - 0.0 - Mostly clear 10 - - - -
24/01:00pm 21.7 SSW 15 20 1018.1 - 0.0 - Mostly clear 10 - - - -
24/12:30pm 21.9 SSW 14 19 1018.2 - 0.0 - Mostly clear 10 - - - -
24/12:00pm 21.6 SSE 12 18 1018.0 R 0.0 Haze Mostly clear 25 - - - -
24/11:30am 21.4 SSE 10 17 1017.7 - 0.0 - Mostly clear 10 - - - -
24/11:00am 21.7 SSE 12 18 1017.5 - 0.0 - Mostly clear 10 - - - -
24/10:30am 21.4 SSW 10 15 1017.5 - 0.0 - Mostly clear 10 - - - -
24/10:00am 20.3 SSW 10 17 1017.5 - 0.0 - Mostly clear 10 - - - -
24/09:30am 19.9 S 10 15 1017.4 - 0.0 - Mostly clear 10 - - - -
24/09:00am 19.8 S 9 14 1017.1 R 8.8 Haze Partly cloudy 20 - - - -
24/08:30am 19.7 SSE 7 9 1016.7 - 8.8 - Mostly clear 10 - - - -
24/08:00am 19.0 SSE 6 9 1016.1 - 8.8 - Mostly clear 10 - - - -
24/07:30am 17.7 SE 6 8 1015.6 - 8.8 - Mostly clear 10 - - - -
24/07:00am 16.8 SE 5 6 1015.1 - 8.8 - Mostly clear 10 - - - -
24/06:30am 17.1 SSE 7 8 1014.6 - 8.8 - Partly cloudy 10 - - - -
24/06:00am 17.4 S 9 11 1014.1 R 8.8 Haze Partly cloudy 20 - - - -
24/05:30am 17.9 S 12 17 1013.5 - 8.8 - Mostly clear 10 - - - -
24/05:00am 19.0 SSW 15 19 1012.7 - 8.8 - Partly cloudy 10 - - - -
24/04:30am 19.4 SSW 8 14 1012.4 - 8.8 - Partly cloudy 10 - - - -
24/04:00am 19.5 SSW 13 23 1012.2 - 8.8 - Mostly clear 10 - - - -
24/03:30am 19.7 SSW 11 17 1011.8 - 8.8 - Mostly clear 10 - - - -
24/03:00am 19.6 SSW 13 18 1011.5 R 8.8 Fine Mostly cloudy 20 - - - -
24/02:30am 19.7 SSW 17 22 1011.0 - 8.8 - Mostly clear 10 - - - -
24/02:00am 19.7 SW 16 22 1010.8 - 8.8 - Partly cloudy 10 - - - -
24/01:30am 20.0 SW 15 21 1011.0 - 8.8 - Mostly clear 10 - - - -
24/01:00am 20.3 SW 13 19 1010.9 - 8.8 - Mostly clear 10 - - - -
24/12:30am 20.5 SSW 15 20 1010.8 - 8.8 - Mostly clear 9 - - - -
24/12:00am 21.1 SW 19 25 1010.0 R 8.8 Drizzle Cloudy 9 - - - -
 
Date/Time
CDT
Temp
°C
Wind Pressure Rain since
9am
mm
Weather Cloud Vis
km
Sea
Height
m
Swell
Dir  Spd
kts
Gust
kts
hPa Trend Height
m
Period
s
Dir
23/11:51pm 21.0 WSW 18 25 1009.8 - 8.8 - Mostly cloudy 9 - - - -
23/11:30pm 21.1 WSW 19 27 1009.5 - 8.8 - Mostly clear 9 - - - -
23/11:00pm 21.1 WSW 20 26 1009.0 - 8.8 - Mostly clear 10 - - - -
23/10:51pm 21.3 WSW 20 27 1008.8 - 8.8 - Partly cloudy 10 - - - -
23/10:30pm 22.3 W 13 16 1008.4 - 8.6 - Partly cloudy 3 - - - -
23/10:00pm 22.5 WNW 12 16 1008.1 - 8.4 Drizzle Partly cloudy 5 - - - -
23/09:30pm 23.1 WNW 7 10 1007.8 - 8.4 - Mostly clear 5 - - - -
23/09:15pm 23.4 NW 8 10 1007.8 - 8.4 Drizzle Mostly clear 5 - - - -
23/09:00pm 23.9 NNW 8 10 1007.6 R 8.4 Drizzle Cloudy 25 - - - -
23/08:30pm 23.9 N 8 9 1006.9 - 8.4 - Mostly clear 10 - - - -
23/08:00pm 24.0 NNW 6 8 1006.1 - 8.4 - Mostly clear 10 - - - -
23/07:30pm 23.8 NNW 7 8 1005.7 - 8.4 - Mostly clear 10 - - - -
23/07:00pm 24.1 NNW 8 9 1005.5 - 8.4 - Mostly clear 10 - - - -
23/06:30pm 24.1 N 8 10 1004.8 - 8.2 - Mostly clear 10 - - - -
23/06:00pm 23.9 NNE 5 7 1004.2 F 8.2 Fine Mostly cloudy 35 - - - -
23/05:30pm 23.1 NE 7 9 1004.4 - 8.2 - Mostly clear 10 - - - -
23/05:24pm 22.8 NE 6 9 1004.5 - 8.0 Showers Mostly clear 7 - - - -
23/05:00pm 22.8 N 5 8 1005.4 - 6.6 Showers Mostly clear 3 - - - -
23/04:52pm 22.8 NNE 3 5 1005.5 - 6.4 Showers Mostly clear 7 - - - -
23/04:30pm 22.4 SSW 4 6 1005.8 - 4.8 - Mostly clear 2 - - - -
23/04:15pm 22.5 SSW 6 8 1005.9 - 3.0 Showers Mostly clear 2 - - - -
23/04:00pm 23.0 CALM 0 4 1006.1 - 2.6 Showers Mostly clear 10 - - - -
23/03:30pm 23.3 SW 7 10 1005.8 - 2.4 - Mostly clear 10 - - - -
23/03:00pm 24.2 NW 2 6 1006.0 R 2.2 Fine Mostly cloudy 35 - - - -
23/02:30pm 23.6 ESE 4 6 1005.1 - 2.2 - Mostly clear 10 - - - -
23/02:00pm 22.7 SE 8 10 1005.1 - 2.2 - Mostly clear 10 - - - -
23/01:45pm 22.3 SE 8 9 1005.3 - 2.2 - Mostly clear 10 - - - -
23/01:30pm 22.0 S 5 7 1006.4 - 1.8 - Mostly clear 7 - - - -
23/01:00pm 23.3 WSW 9 12 1006.6 - 0.2 Showers Partly cloudy 6 - - - -
23/12:30pm 25.1 S 6 8 1005.7 - 0.0 - Partly cloudy 10 - - - -
23/12:00pm 24.9 SSW 8 10 1006.0 R 0.0 Fine Mostly cloudy 35 - - - -
23/11:30am 24.8 WSW 11 14 1006.3 - 0.0 - Cloudy 10 - - - -
23/11:00am 26.4 W 10 14 1005.5 - 0.0 - Cloudy 10 - - - -
23/10:30am 28.9 W 7 9 1004.7 - 0.0 - Cloudy 10 - - - -
23/10:00am 29.2 N 9 12 1004.4 - 0.0 - Partly cloudy 10 - - - -
23/09:30am 27.8 CALM 0 3 1004.2 - 0.0 - - 10 - - - -
23/09:00am 27.1 WNW 4 5 1004.3 F 0.0 Fine Mostly cloudy 30 - - - -
23/08:30am 27.6 CALM 0 0 1004.4 - 0.0 - Partly cloudy 10 - - - -
23/08:00am 27.2 N 2 4 1004.1 - 0.0 - Partly cloudy 10 - - - -
23/07:30am 25.5 E 4 5 1003.9 - 0.0 - Partly cloudy 10 - - - -
23/07:00am 24.4 CALM 0 0 1004.0 - 0.0 - Cloudy 10 - - - -
23/06:30am 24.0 CALM 0 0 1003.9 - 0.0 - Cloudy 10 - - - -
23/06:00am 24.1 SW 2 5 1003.7 F 0.0 Fine Mostly cloudy 30 - - - -
23/05:30am 25.6 CALM 0 0 1003.8 - 0.0 - Partly cloudy 10 - - - -
23/05:00am 26.3 N 4 5 1003.5 - 0.0 - Partly cloudy 10 - - - -
23/04:30am 25.9 W 4 4 1003.7 - 0.0 - Cloudy 10 - - - -
23/04:00am 27.0 NNE 4 5 1003.9 - 0.0 - Cloudy 10 - - - -
23/03:30am 25.6 CALM 0 0 1004.1 - 0.0 - Cloudy 10 - - - -
23/03:00am 26.5 ESE 4 4 1004.2 F 0.0 Fine Mostly cloudy 30 - - - -
23/02:30am 26.4 ESE 5 5 1004.9 - 0.0 - Cloudy 10 - - - -
23/02:00am 26.5 E 8 9 1005.4 - 0.0 - Cloudy 10 - - - -
23/01:30am 26.6 ESE 6 7 1006.3 - 0.0 - Cloudy 10 - - - -
23/01:00am 26.8 ESE 7 8 1006.7 - 0.0 - Partly cloudy 10 - - - -
23/12:30am 26.9 SE 7 9 1007.2 - 0.0 - Partly cloudy 10 - - - -
23/12:00am 26.9 SE 8 11 1007.2 F 0.0 Fine Mostly cloudy 30 - - - -
 
Date/Time
CDT
Temp
°C
Wind Pressure Rain since
9am
mm
Weather Cloud Vis
km
Sea
Height
m
Swell
Dir  Spd
kts
Gust
kts
hPa Trend Height
m
Period
s
Dir
22/11:30pm 27.0 SSW 7 8 1007.4 - 0.0 - Partly cloudy 10 - - - -
22/11:00pm 25.7 WSW 8 9 1007.4 - 0.0 - Cloudy 10 - - - -
22/10:30pm 25.1 SW 5 7 1007.0 - 0.0 - Partly cloudy 10 - - - -
22/10:00pm 26.2 SSW 5 6 1006.7 - 0.0 - Partly cloudy 10 - - - -
22/09:30pm 27.9 SE 6 8 1007.0 - 0.0 - Partly cloudy 10 - - - -
22/09:00pm 27.8 S 7 8 1007.5 F 0.0 Fine Mostly cloudy 30 - - - -
22/08:30pm 28.6 SSE 8 10 1007.9 - 0.0 - Cloudy 10 - - - -
22/08:00pm 27.9 S 8 10 1007.9 - 0.0 - Partly cloudy 10 - - - -
22/07:30pm 27.0 SSW 10 13 1008.2 - 0.0 - Partly cloudy 10 - - - -
22/07:00pm 29.1 SW 7 8 1007.8 - 0.0 - - 10 - - - -
22/06:30pm 31.0 SSW 5 7 1007.6 - 0.0 - - 10 - - - -
22/06:00pm 29.7 SW 7 10 1007.8 F 0.0 Fine Mostly cloudy 30 - - - -
22/05:30pm 29.5 SW 8 10 1008.0 - 0.0 - - 10 - - - -
22/05:00pm 30.0 SW 10 13 1008.3 - 0.0 - - 10 - - - -
22/04:30pm 30.6 SW 9 11 1008.5 - 0.0 - - 10 - - - -
22/04:00pm 30.1 SW 6 8 1008.7 - 0.0 - - 10 - - - -
22/03:30pm 28.8 WSW 9 12 1009.1 - 0.0 - - 10 - - - -
22/03:00pm 27.8 WSW 10 15 1009.2 F 0.0 Fine Mostly cloudy 30 - - - -
22/02:30pm 28.0 WSW 9 12 1009.3 - 0.0 - - 10 - - - -
22/02:00pm 27.4 W 11 14 1009.6 - 0.0 - - 10 - - - -
22/01:30pm 29.4 W 8 11 1009.9 - 0.0 - - 10 - - - -
22/01:00pm 31.7 N 7 10 1010.6 - 0.0 - - 10 - - - -
22/12:30pm 30.9 N 9 13 1010.9 - 0.0 - - 10 - - - -
22/12:00pm 31.1 NNE 11 16 1011.3 F 0.0 Fine Partly cloudy 30 - - - -

Other Formats:

Comma delimited format used in spreadsheet applications
http://www.bom.gov.au/fwo/IDS60701/IDS60701.94672.axf

JavaScript Object Notation format (JSON) in row-major order
http://www.bom.gov.au/fwo/IDS60701/IDS60701.94672.json